Time;durP1;ratioP1;P1;durP2;ratioP2;P2;SDS_P1;SDS_P2;PMS_P1;PMS_P2;Temp;Humidity;BMP_temperature;BMP_pressure;BME280_temperature;BME280_humidity;BME280_pressure;Samples;Min_cycle;Max_cycle;Signal;HPM_P1;HPM_P2
2021/12/09 00:01:07;;;;;;;;;;;15.20;99.90;;;;;;4979224;28;883;-53
2021/12/09 00:03:37;;;;;;;;;;;15.20;99.90;;;;;;4996545;28;1020;-53
2021/12/09 00:06:05;;;;;;;;;;;15.10;99.90;;;;;;4996481;28;1919;-53
2021/12/09 00:08:31;;;;;;;;;;;15.00;99.90;;;;;;5010471;28;1079;-54
2021/12/09 00:10:59;;;;;;;;;;;15.00;99.90;;;;;;4996872;28;864;-53
2021/12/09 00:13:27;;;;;;;;;;;15.00;99.90;;;;;;4997666;28;885;-54
2021/12/09 00:15:54;;;;;;;;;;;14.90;99.90;;;;;;5000723;28;875;-53
2021/12/09 00:18:22;;;;;;;;;;;14.90;99.90;;;;;;5000730;28;896;-54
2021/12/09 00:20:50;;;;;;;;;;;14.80;99.90;;;;;;5000640;28;935;-53
2021/12/09 00:23:16;;;;;;;;;;;14.70;99.90;;;;;;4998997;28;991;-54
2021/12/09 00:25:42;;;;;;;;;;;14.70;99.90;;;;;;5015602;28;1914;-53
2021/12/09 00:28:09;;;;;;;;;;;14.70;99.90;;;;;;5000167;28;841;-53
2021/12/09 00:30:37;;;;;;;;;;;14.60;99.90;;;;;;5000267;28;865;-54
2021/12/09 00:33:06;;;;;;;;;;;14.60;99.90;;;;;;4997748;28;858;-54
2021/12/09 00:35:55;;;;;;;;;;;14.50;99.90;;;;;;5015167;28;853;-53
2021/12/09 00:38:34;;;;;;;;;;;14.50;99.90;;;;;;4994908;28;833;-53
2021/12/09 00:41:07;;;;;;;;;;;14.40;99.90;;;;;;5000196;28;892;-54
2021/12/09 00:43:35;;;;;;;;;;;14.40;99.90;;;;;;4999765;28;868;-54
2021/12/09 00:46:02;;;;;;;;;;;14.40;99.90;;;;;;4997822;28;1902;-54
2021/12/09 00:48:33;;;;;;;;;;;14.30;99.90;;;;;;5000157;28;878;-53
2021/12/09 00:51:01;;;;;;;;;;;14.30;99.90;;;;;;4998449;28;1297;-53
2021/12/09 00:53:30;;;;;;;;;;;14.30;99.90;;;;;;4999864;28;824;-53
2021/12/09 00:55:56;;;;;;;;;;;14.30;99.90;;;;;;4999795;28;1046;-53
2021/12/09 00:58:22;;;;;;;;;;;14.20;99.90;;;;;;4999277;28;1024;-53
2021/12/09 01:00:50;;;;;;;;;;;14.20;99.90;;;;;;4999521;28;935;-54
2021/12/09 01:03:17;;;;;;;;;;;14.20;99.90;;;;;;4999642;28;874;-54
2021/12/09 01:05:44;;;;;;;;;;;14.10;99.90;;;;;;4999546;28;1974;-54
2021/12/09 01:08:11;;;;;;;;;;;14.10;99.90;;;;;;4999301;28;971;-53
2021/12/09 01:10:38;;;;;;;;;;;14.10;99.90;;;;;;4981863;28;940;-54
2021/12/09 01:13:11;;;;;;;;;;;14.00;99.90;;;;;;4999407;28;898;-53
2021/12/09 01:15:40;;;;;;;;;;;14.00;99.90;;;;;;5013072;28;912;-53
2021/12/09 01:18:06;;;;;;;;;;;14.00;99.90;;;;;;4999383;28;877;-54
2021/12/09 01:20:33;;;;;;;;;;;14.00;99.90;;;;;;5029570;28;1008;-53
2021/12/09 01:23:04;;;;;;;;;;;13.90;99.90;;;;;;4999582;28;840;-54
2021/12/09 01:25:37;;;;;;;;;;;13.90;99.90;;;;;;4998579;28;1911;-53
2021/12/09 01:28:05;;;;;;;;;;;13.90;99.90;;;;;;4998773;28;1256;-54
2021/12/09 01:30:31;;;;;;;;;;;13.80;99.90;;;;;;4999106;28;899;-54
2021/12/09 01:32:59;;;;;;;;;;;13.80;99.90;;;;;;4999186;28;924;-53
2021/12/09 01:35:28;;;;;;;;;;;13.80;99.90;;;;;;4981409;28;897;-53
2021/12/09 01:38:00;;;;;;;;;;;13.80;99.90;;;;;;4999320;28;835;-54
2021/12/09 01:40:26;;;;;;;;;;;13.70;99.90;;;;;;4997598;28;895;-54
2021/12/09 01:42:54;;;;;;;;;;;13.70;99.90;;;;;;5012529;28;1457;-54
2021/12/09 01:45:22;;;;;;;;;;;13.70;99.90;;;;;;5015391;28;1918;-53
2021/12/09 01:47:49;;;;;;;;;;;13.70;99.90;;;;;;5016963;28;871;-54
2021/12/09 01:50:17;;;;;;;;;;;13.70;99.90;;;;;;5016678;28;873;-53
2021/12/09 01:52:45;;;;;;;;;;;13.60;99.90;;;;;;5016765;28;854;-54
2021/12/09 01:55:13;;;;;;;;;;;13.60;99.90;;;;;;5016687;28;1029;-54
2021/12/09 01:57:39;;;;;;;;;;;13.60;99.90;;;;;;5002643;28;1218;-53
2021/12/09 02:00:07;;;;;;;;;;;13.60;99.90;;;;;;5013298;28;1023;-53
2021/12/09 02:02:33;;;;;;;;;;;13.50;99.90;;;;;;4998709;28;917;-53
2021/12/09 02:04:59;;;;;;;;;;;13.50;99.90;;;;;;5013671;28;1989;-53
2021/12/09 02:07:25;;;;;;;;;;;13.50;99.90;;;;;;4998607;28;828;-53
2021/12/09 02:09:53;;;;;;;;;;;13.50;99.90;;;;;;4998347;28;872;-53
2021/12/09 02:12:22;;;;;;;;;;;13.40;99.90;;;;;;4998336;28;977;-54
2021/12/09 02:14:52;;;;;;;;;;;13.40;99.90;;;;;;4998557;28;942;-53
2021/12/09 02:17:25;;;;;;;;;;;13.40;99.90;;;;;;5029943;28;940;-54
2021/12/09 02:19:52;;;;;;;;;;;13.40;99.90;;;;;;4998313;28;874;-54
2021/12/09 02:22:19;;;;;;;;;;;13.40;99.90;;;;;;4997866;28;1000;-53
2021/12/09 02:24:46;;;;;;;;;;;13.40;99.90;;;;;;4998174;28;1915;-53
2021/12/09 02:27:14;;;;;;;;;;;13.30;99.90;;;;;;5007231;28;972;-53
2021/12/09 02:29:41;;;;;;;;;;;13.30;99.90;;;;;;5015532;28;1051;-53
2021/12/09 02:32:08;;;;;;;;;;;13.30;99.90;;;;;;5015951;28;878;-54
2021/12/09 02:34:35;;;;;;;;;;;13.30;99.90;;;;;;5014401;28;1371;-53
2021/12/09 02:37:04;;;;;;;;;;;13.20;99.90;;;;;;5013228;28;974;-53
2021/12/09 02:39:31;;;;;;;;;;;13.20;99.90;;;;;;5014347;28;1045;-53
2021/12/09 02:41:58;;;;;;;;;;;13.20;99.90;;;;;;5014085;28;954;-53
2021/12/09 02:44:25;;;;;;;;;;;13.10;99.90;;;;;;5013519;28;886;-53
2021/12/09 02:46:53;;;;;;;;;;;13.10;99.90;;;;;;4997651;28;1906;-53
2021/12/09 02:49:24;;;;;;;;;;;13.10;99.90;;;;;;4997746;28;944;-54
2021/12/09 02:51:52;;;;;;;;;;;13.10;99.90;;;;;;5014446;28;1647;-53
2021/12/09 02:54:19;;;;;;;;;;;13.10;99.90;;;;;;5013992;28;1193;-54
2021/12/09 02:56:47;;;;;;;;;;;13.00;99.90;;;;;;4992211;28;1147;-53
2021/12/09 02:59:14;;;;;;;;;;;13.00;99.90;;;;;;4995266;28;1040;-53
2021/12/09 03:02:00;;;;;;;;;;;13.00;99.90;;;;;;4995795;28;1046;-53
2021/12/09 03:04:43;;;;;;;;;;;13.00;99.90;;;;;;4994368;28;829;-53
2021/12/09 03:07:18;;;;;;;;;;;13.00;99.90;;;;;;4994985;28;1969;-54
2021/12/09 03:09:50;;;;;;;;;;;13.00;99.90;;;;;;4995293;28;839;-53
2021/12/09 03:12:21;;;;;;;;;;;12.90;99.90;;;;;;4996097;28;876;-54
2021/12/09 03:14:47;;;;;;;;;;;12.90;99.90;;;;;;4996237;28;935;-53
2021/12/09 03:17:13;;;;;;;;;;;12.90;99.90;;;;;;4947251;28;970;-54
2021/12/09 03:19:39;;;;;;;;;;;12.90;99.90;;;;;;4997308;28;865;-53
2021/12/09 03:22:08;;;;;;;;;;;12.90;99.90;;;;;;4996840;28;1223;-53
2021/12/09 03:24:38;;;;;;;;;;;12.90;99.90;;;;;;4997481;28;940;-53
2021/12/09 03:27:05;;;;;;;;;;;12.90;99.90;;;;;;4962429;28;1963;-53
2021/12/09 03:29:31;;;;;;;;;;;12.80;99.90;;;;;;5014893;28;809;-53
2021/12/09 03:32:00;;;;;;;;;;;12.80;99.90;;;;;;5015163;28;868;-53
2021/12/09 03:34:28;;;;;;;;;;;12.80;99.90;;;;;;5013550;28;934;-53
2021/12/09 03:36:57;;;;;;;;;;;12.80;99.90;;;;;;5015295;28;987;-53
2021/12/09 03:39:27;;;;;;;;;;;12.70;99.90;;;;;;5015315;28;917;-53
2021/12/09 03:41:55;;;;;;;;;;;12.70;99.90;;;;;;5014950;28;894;-54
2021/12/09 03:44:23;;;;;;;;;;;12.70;99.90;;;;;;4997190;28;1047;-54
2021/12/09 03:46:55;;;;;;;;;;;12.70;99.90;;;;;;5015324;28;1906;-53
2021/12/09 03:49:25;;;;;;;;;;;12.70;99.90;;;;;;5017253;28;916;-53
2021/12/09 03:51:54;;;;;;;;;;;12.60;99.90;;;;;;5001162;28;917;-54
2021/12/09 03:54:20;;;;;;;;;;;12.60;99.90;;;;;;5018385;28;1032;-53
2021/12/09 03:56:47;;;;;;;;;;;12.60;99.90;;;;;;5013281;28;879;-53
2021/12/09 03:59:16;;;;;;;;;;;12.60;99.90;;;;;;4998638;28;1234;-53
2021/12/09 04:01:42;;;;;;;;;;;12.50;99.90;;;;;;5000810;28;829;-54
2021/12/09 04:04:11;;;;;;;;;;;12.50;99.90;;;;;;5000986;28;805;-54
2021/12/09 04:06:40;;;;;;;;;;;12.50;99.90;;;;;;4998470;28;1914;-54
2021/12/09 04:09:08;;;;;;;;;;;12.50;99.90;;;;;;4999898;28;880;-53
2021/12/09 04:11:35;;;;;;;;;;;12.50;99.90;;;;;;5000601;28;963;-54
2021/12/09 04:14:01;;;;;;;;;;;12.50;99.90;;;;;;5000256;28;853;-54
2021/12/09 04:16:29;;;;;;;;;;;12.50;99.90;;;;;;5000204;28;869;-54
2021/12/09 04:18:55;;;;;;;;;;;12.50;99.90;;;;;;4966693;28;1091;-54
2021/12/09 04:21:22;;;;;;;;;;;12.40;99.90;;;;;;5000291;28;1025;-53
2021/12/09 04:23:48;;;;;;;;;;;12.40;99.90;;;;;;4999954;28;847;-53
2021/12/09 04:26:16;;;;;;;;;;;12.40;99.90;;;;;;4997843;28;1910;-54
2021/12/09 04:28:43;;;;;;;;;;;12.40;99.90;;;;;;5000268;28;807;-54
2021/12/09 04:31:12;;;;;;;;;;;12.40;99.90;;;;;;4982172;28;948;-54
2021/12/09 04:33:38;;;;;;;;;;;12.30;99.90;;;;;;4998275;28;941;-53
2021/12/09 04:36:04;;;;;;;;;;;12.30;99.90;;;;;;4999999;28;854;-54
2021/12/09 04:38:34;;;;;;;;;;;12.30;99.90;;;;;;4999699;28;1133;-53
2021/12/09 04:41:00;;;;;;;;;;;12.30;99.90;;;;;;5000105;28;884;-53
2021/12/09 04:43:28;;;;;;;;;;;12.30;99.90;;;;;;4999286;28;885;-54
2021/12/09 04:45:57;;;;;;;;;;;12.30;99.90;;;;;;4999820;28;1940;-54
2021/12/09 04:48:24;;;;;;;;;;;12.30;99.90;;;;;;4999894;28;881;-55
2021/12/09 04:50:50;;;;;;;;;;;12.20;99.90;;;;;;5013443;28;888;-54
2021/12/09 04:53:17;;;;;;;;;;;12.20;99.90;;;;;;5013812;28;876;-53
2021/12/09 04:55:43;;;;;;;;;;;12.20;99.90;;;;;;4999823;28;876;-54
2021/12/09 04:58:10;;;;;;;;;;;12.20;99.90;;;;;;4998643;28;1115;-53
2021/12/09 05:00:38;;;;;;;;;;;12.20;99.90;;;;;;4998813;28;865;-53
2021/12/09 05:03:10;;;;;;;;;;;12.20;99.90;;;;;;4999981;28;900;-53
2021/12/09 05:05:42;;;;;;;;;;;12.10;99.90;;;;;;5013530;28;1898;-55
2021/12/09 05:08:12;;;;;;;;;;;12.20;99.90;;;;;;4999627;28;1055;-54
2021/12/09 05:11:01;;;;;;;;;;;12.10;99.90;;;;;;5010452;28;858;-54
2021/12/09 05:13:30;;;;;;;;;;;12.10;99.90;;;;;;4993260;28;1035;-53
2021/12/09 05:15:58;;;;;;;;;;;12.10;99.90;;;;;;4980889;28;992;-54
2021/12/09 05:18:25;;;;;;;;;;;12.10;99.90;;;;;;5013115;28;949;-54
2021/12/09 05:20:53;;;;;;;;;;;12.10;99.90;;;;;;5013142;28;1650;-54
2021/12/09 05:23:23;;;;;;;;;;;12.00;99.90;;;;;;4996340;28;944;-53
2021/12/09 05:25:49;;;;;;;;;;;12.00;99.90;;;;;;4998751;28;1902;-54
2021/12/09 05:28:18;;;;;;;;;;;12.00;99.90;;;;;;4963658;28;1018;-54
2021/12/09 05:33:33;;;;;;;;;;;12.00;99.90;;;;;;4996637;28;896;-54
2021/12/09 05:36:17;;;;;;;;;;;11.90;99.90;;;;;;4997038;28;653;-54
2021/12/09 05:38:43;;;;;;;;;;;11.90;99.90;;;;;;4996162;28;940;-53
2021/12/09 05:41:11;;;;;;;;;;;11.90;99.90;;;;;;5012593;28;1041;-53
2021/12/09 05:43:37;;;;;;;;;;;11.90;99.90;;;;;;4995043;28;1053;-54
2021/12/09 05:46:04;;;;;;;;;;;11.90;99.90;;;;;;4998858;28;1958;-54
2021/12/09 05:48:32;;;;;;;;;;;11.80;99.90;;;;;;4998838;28;935;-54
2021/12/09 05:51:03;;;;;;;;;;;11.80;99.90;;;;;;4996705;28;1008;-54
2021/12/09 05:53:30;;;;;;;;;;;11.80;99.90;;;;;;5014044;28;936;-53
2021/12/09 05:55:56;;;;;;;;;;;11.80;99.90;;;;;;4998550;28;1131;-53
2021/12/09 05:58:24;;;;;;;;;;;11.80;99.90;;;;;;4998106;28;1243;-53
2021/12/09 06:00:51;;;;;;;;;;;11.80;99.90;;;;;;4998452;28;934;-54
2021/12/09 06:03:22;;;;;;;;;;;11.80;99.90;;;;;;4999001;28;919;-54
2021/12/09 06:05:50;;;;;;;;;;;11.90;99.90;;;;;;4998685;28;1910;-54
2021/12/09 06:08:22;;;;;;;;;;;11.90;99.90;;;;;;4998530;28;892;-54
2021/12/09 06:10:49;;;;;;;;;;;12.00;99.90;;;;;;4995439;28;821;-53
2021/12/09 06:13:26;;;;;;;;;;;12.00;99.90;;;;;;4995969;28;869;-54
2021/12/09 06:15:58;;;;;;;;;;;12.10;99.90;;;;;;4998638;28;805;-53
2021/12/09 06:18:24;;;;;;;;;;;12.20;99.90;;;;;;4996149;28;1054;-54
2021/12/09 06:20:52;;;;;;;;;;;12.30;99.90;;;;;;4998227;28;1058;-54
2021/12/09 06:23:18;;;;;;;;;;;12.30;99.90;;;;;;5013621;28;1418;-54
2021/12/09 06:25:44;;;;;;;;;;;12.50;99.90;;;;;;4998111;28;1910;-54
2021/12/09 06:28:11;;;;;;;;;;;12.60;99.90;;;;;;5013406;28;1530;-54
2021/12/09 06:30:37;;;;;;;;;;;12.70;99.90;;;;;;4997989;28;816;-54
2021/12/09 06:33:05;;;;;;;;;;;12.80;99.90;;;;;;5028542;28;927;-54
2021/12/09 06:35:32;;;;;;;;;;;13.00;99.90;;;;;;4998279;28;835;-54
2021/12/09 06:38:00;;;;;;;;;;;13.20;99.90;;;;;;4997843;28;896;-53
2021/12/09 06:40:27;;;;;;;;;;;13.40;99.90;;;;;;4996885;28;953;-53
2021/12/09 06:42:53;;;;;;;;;;;13.50;99.90;;;;;;4997843;28;904;-54
2021/12/09 06:45:20;;;;;;;;;;;13.60;99.90;;;;;;4994437;28;928;-54
2021/12/09 06:47:49;;;;;;;;;;;13.80;99.90;;;;;;5012816;28;1957;-53
2021/12/09 06:50:17;;;;;;;;;;;13.90;99.90;;;;;;4979863;28;1639;-54
2021/12/09 06:52:51;;;;;;;;;;;14.10;99.90;;;;;;4963141;28;978;-54
2021/12/09 06:55:17;;;;;;;;;;;14.20;99.90;;;;;;5011831;28;981;-54
2021/12/09 06:57:44;;;;;;;;;;;14.30;99.90;;;;;;4996048;28;1010;-54
2021/12/09 07:00:23;;;;;;;;;;;14.40;99.90;;;;;;4997336;28;1205;-53
2021/12/09 07:02:51;;;;;;;;;;;14.50;99.90;;;;;;4993600;28;869;-54
2021/12/09 07:05:19;;;;;;;;;;;14.60;99.90;;;;;;5011323;28;989;-53
2021/12/09 07:07:46;;;;;;;;;;;14.70;99.90;;;;;;5011588;28;1906;-54
2021/12/09 07:10:14;;;;;;;;;;;14.80;99.90;;;;;;4999752;28;1373;-54
2021/12/09 07:12:43;;;;;;;;;;;14.90;99.90;;;;;;5007898;28;927;-54
2021/12/09 07:15:15;;;;;;;;;;;14.90;99.90;;;;;;5011519;28;900;-54
2021/12/09 07:17:42;;;;;;;;;;;15.00;99.90;;;;;;4997368;28;939;-54
2021/12/09 07:20:11;;;;;;;;;;;15.00;99.90;;;;;;4997424;28;858;-54
2021/12/09 07:22:38;;;;;;;;;;;15.00;99.90;;;;;;4997264;28;872;-54
2021/12/09 07:25:12;;;;;;;;;;;15.00;99.90;;;;;;4997243;28;824;-54
2021/12/09 07:27:39;;;;;;;;;;;15.10;99.90;;;;;;4997409;28;1968;-53
2021/12/09 07:30:07;;;;;;;;;;;15.10;99.90;;;;;;5003297;28;1365;-53
2021/12/09 07:32:33;;;;;;;;;;;15.10;99.90;;;;;;4994895;28;1304;-53
2021/12/09 07:34:59;;;;;;;;;;;15.10;99.90;;;;;;4979097;28;1350;-53
2021/12/09 07:37:26;;;;;;;;;;;15.10;99.90;;;;;;4995229;28;1249;-53
2021/12/09 07:39:54;;;;;;;;;;;15.10;99.90;;;;;;5011822;28;812;-53
2021/12/09 07:42:25;;;;;;;;;;;15.00;99.90;;;;;;5010601;28;924;-53
2021/12/09 07:44:52;;;;;;;;;;;14.90;99.90;;;;;;4995380;28;952;-53
2021/12/09 07:47:20;;;;;;;;;;;14.90;99.90;;;;;;5010623;28;1898;-54
2021/12/09 07:49:46;;;;;;;;;;;14.90;99.90;;;;;;4995389;28;949;-54
2021/12/09 07:52:13;;;;;;;;;;;14.90;99.90;;;;;;5010972;28;873;-54
2021/12/09 07:54:40;;;;;;;;;;;14.90;99.90;;;;;;4994876;28;928;-54
2021/12/09 07:57:07;;;;;;;;;;;14.90;99.90;;;;;;4995407;28;929;-54
2021/12/09 07:59:33;;;;;;;;;;;14.90;99.90;;;;;;4995112;28;1328;-54
2021/12/09 08:02:05;;;;;;;;;;;15.00;99.90;;;;;;5025293;28;948;-54
2021/12/09 08:04:33;;;;;;;;;;;15.00;99.90;;;;;;5014205;28;985;-54
2021/12/09 08:06:59;;;;;;;;;;;15.00;99.90;;;;;;5013122;28;1906;-53
2021/12/09 08:09:27;;;;;;;;;;;15.10;99.90;;;;;;5014166;28;912;-53
2021/12/09 08:11:55;;;;;;;;;;;15.00;99.90;;;;;;5014107;28;924;-53
2021/12/09 08:14:23;;;;;;;;;;;15.00;99.90;;;;;;5013798;28;860;-53
2021/12/09 08:17:34;;;;;;;;;;;15.10;99.90;;;;;;5014044;28;853;-54
2021/12/09 08:19:59;;;;;;;;;;;15.10;99.90;;;;;;4961451;28;1647;-54
2021/12/09 08:22:27;;;;;;;;;;;15.10;99.90;;;;;;5013640;28;999;-54
2021/12/09 08:24:56;;;;;;;;;;;15.10;99.90;;;;;;4981342;28;1023;-53
2021/12/09 08:27:23;;;;;;;;;;;15.10;99.90;;;;;;5011994;28;1956;-54
2021/12/09 08:29:50;;;;;;;;;;;15.10;99.90;;;;;;5013680;28;813;-54
2021/12/09 08:32:16;;;;;;;;;;;15.20;99.90;;;;;;5013577;28;909;-53
2021/12/09 08:34:42;;;;;;;;;;;15.20;99.90;;;;;;5005750;28;1719;-54
2021/12/09 08:37:11;;;;;;;;;;;15.10;99.90;;;;;;5013112;28;1581;-54
2021/12/09 08:39:37;;;;;;;;;;;15.00;99.90;;;;;;5013035;28;1406;-54
2021/12/09 08:42:03;;;;;;;;;;;15.00;99.90;;;;;;5033105;28;1612;-54
2021/12/09 08:44:30;;;;;;;;;;;15.00;99.90;;;;;;5008907;28;861;-54
2021/12/09 08:46:57;;;;;;;;;;;15.00;99.90;;;;;;5018232;28;1949;-54
2021/12/09 08:49:25;;;;;;;;;;;15.00;99.90;;;;;;4963424;28;985;-53
2021/12/09 08:51:52;;;;;;;;;;;15.10;99.90;;;;;;5016126;28;1632;-53
2021/12/09 08:54:18;;;;;;;;;;;15.10;99.90;;;;;;5017094;28;1035;-53
2021/12/09 08:56:50;;;;;;;;;;;15.20;99.90;;;;;;5005028;28;946;-53
2021/12/09 08:59:21;;;;;;;;;;;15.20;99.90;;;;;;5017550;28;1181;-53
2021/12/09 09:01:49;;;;;;;;;;;15.30;99.90;;;;;;5016131;28;835;-54
2021/12/09 09:04:20;;;;;;;;;;;15.40;99.90;;;;;;5017679;28;927;-53
2021/12/09 09:06:55;;;;;;;;;;;15.50;99.90;;;;;;4992998;28;1906;-54
2021/12/09 09:09:25;;;;;;;;;;;15.60;99.90;;;;;;5041410;28;1802;-54
2021/12/09 09:11:53;;;;;;;;;;;15.60;99.90;;;;;;5033010;28;841;-53
2021/12/09 09:14:19;;;;;;;;;;;15.80;99.90;;;;;;5032112;28;963;-53
2021/12/09 09:16:46;;;;;;;;;;;15.80;99.90;;;;;;5017160;28;919;-53
2021/12/09 09:19:13;;;;;;;;;;;15.90;99.90;;;;;;5032252;28;955;-53
2021/12/09 09:21:42;;;;;;;;;;;16.00;99.90;;;;;;5017386;28;1032;-53
2021/12/09 09:24:10;;;;;;;;;;;16.00;99.90;;;;;;5017237;28;853;-53
2021/12/09 09:26:42;;;;;;;;;;;16.00;99.90;;;;;;5010443;28;1901;-54
2021/12/09 09:29:08;;;;;;;;;;;15.90;99.90;;;;;;4996920;28;1283;-53
2021/12/09 09:31:35;;;;;;;;;;;15.90;99.90;;;;;;4998448;28;1125;-54
2021/12/09 09:34:03;;;;;;;;;;;15.90;99.90;;;;;;4999820;28;1337;-54
2021/12/09 09:36:31;;;;;;;;;;;15.90;99.90;;;;;;5013978;28;1139;-54
2021/12/09 09:39:06;;;;;;;;;;;15.80;99.90;;;;;;4998461;28;1218;-54
2021/12/09 09:41:33;;;;;;;;;;;15.70;99.90;;;;;;5011127;28;1413;-54
2021/12/09 09:44:10;;;;;;;;;;;15.40;99.90;;;;;;4964774;28;1784;-54
2021/12/09 09:46:41;;;;;;;;;;;15.30;99.90;;;;;;4998044;28;1910;-51
2021/12/09 09:49:13;;;;;;;;;;;15.10;99.90;;;;;;4999615;28;1155;-51
2021/12/09 09:51:39;;;;;;;;;;;15.10;99.90;;;;;;4998635;28;936;-50
2021/12/09 09:54:06;;;;;;;;;;;15.30;99.90;;;;;;5012780;28;1004;-50
2021/12/09 09:56:34;;;;;;;;;;;15.40;99.90;;;;;;5002561;28;886;-50
2021/12/09 09:59:06;;;;;;;;;;;15.60;99.90;;;;;;5015086;28;1312;-50
2021/12/09 10:01:34;;;;;;;;;;;15.70;99.90;;;;;;4998712;28;992;-50
2021/12/09 10:04:26;;;;;;;;;;;15.80;99.90;;;;;;5031351;28;920;-50
2021/12/09 10:06:54;;;;;;;;;;;15.90;99.90;;;;;;5031484;28;1910;-50
2021/12/09 10:09:20;;;;;;;;;;;15.90;99.90;;;;;;5031771;28;825;-50
2021/12/09 10:11:46;;;;;;;;;;;16.00;99.90;;;;;;5001520;28;1282;-51
2021/12/09 10:14:18;;;;;;;;;;;16.00;99.90;;;;;;4992715;28;849;-51
2021/12/09 10:16:59;;;;;;;;;;;16.00;99.90;;;;;;4992540;28;929;-51
2021/12/09 10:19:25;;;;;;;;;;;16.10;99.90;;;;;;4998122;28;900;-50
2021/12/09 10:22:02;;;;;;;;;;;16.10;99.90;;;;;;4998005;28;1075;-50
2021/12/09 10:24:30;;;;;;;;;;;16.20;99.90;;;;;;4995739;28;1103;-51
2021/12/09 10:26:58;;;;;;;;;;;16.30;99.90;;;;;;4997950;28;1902;-51
2021/12/09 10:29:30;;;;;;;;;;;16.40;99.90;;;;;;4998031;28;888;-51
2021/12/09 10:31:59;;;;;;;;;;;16.60;99.90;;;;;;4998263;28;897;-50
2021/12/09 10:34:45;;;;;;;;;;;16.90;99.90;;;;;;4999924;28;1014;-51
2021/12/09 10:37:16;;;;;;;;;;;17.10;99.90;;;;;;4992294;28;1124;-51
2021/12/09 10:39:54;;;;;;;;;;;17.20;99.90;;;;;;4997077;28;1318;-51
2021/12/09 10:42:27;;;;;;;;;;;17.20;99.90;;;;;;4999700;28;1664;-51
2021/12/09 10:44:54;;;;;;;;;;;17.20;99.90;;;;;;5016008;28;905;-50
2021/12/09 10:47:36;;;;;;;;;;;17.20;99.90;;;;;;5003488;28;1980;-51
2021/12/09 10:50:48;;;;;;;;;;;17.20;99.90;;;;;;5007199;28;1052;-51
2021/12/09 10:55:54;;;;;;;;;;;17.20;99.90;;;;;;4997266;28;1148;-51
2021/12/09 10:58:31;;;;;;;;;;;17.20;99.90;;;;;;4995306;28;1128;-51
2021/12/09 11:01:00;;;;;;;;;;;17.20;99.90;;;;;;4995613;28;1409;-50
2021/12/09 11:03:32;;;;;;;;;;;17.20;99.90;;;;;;4996457;28;1137;-51
2021/12/09 11:06:05;;;;;;;;;;;17.20;99.90;;;;;;4997468;28;1030;-51
2021/12/09 11:08:35;;;;;;;;;;;17.10;99.90;;;;;;5005292;28;931;-51
2021/12/09 11:11:09;;;;;;;;;;;17.10;99.90;;;;;;5015366;28;935;-51
2021/12/09 11:13:40;;;;;;;;;;;17.10;99.90;;;;;;5015139;28;805;-51
2021/12/09 11:16:08;;;;;;;;;;;17.00;99.90;;;;;;5015542;28;796;-51
2021/12/09 11:18:41;;;;;;;;;;;16.90;99.90;;;;;;5008217;28;1147;-51
2021/12/09 11:21:07;;;;;;;;;;;16.90;99.90;;;;;;4979217;28;978;-51
2021/12/09 11:23:38;;;;;;;;;;;16.90;99.90;;;;;;4996944;28;988;-51
2021/12/09 11:26:19;;;;;;;;;;;16.80;99.90;;;;;;5011577;28;1906;-51
2021/12/09 11:29:01;;;;;;;;;;;16.80;99.90;;;;;;4995750;28;997;-51
2021/12/09 11:31:34;;;;;;;;;;;16.80;99.90;;;;;;4996643;28;929;-51
2021/12/09 11:34:06;;;;;;;;;;;16.80;99.90;;;;;;4996981;28;903;-51
2021/12/09 11:36:40;;;;;;;;;;;16.80;99.90;;;;;;4978822;28;909;-51
2021/12/09 11:39:14;;;;;;;;;;;16.90;99.90;;;;;;4997140;28;898;-51
2021/12/09 11:41:43;;;;;;;;;;;16.90;99.90;;;;;;4996141;28;930;-51
2021/12/09 11:44:13;;;;;;;;;;;17.00;99.90;;;;;;4996845;28;1039;-51
2021/12/09 11:46:42;;;;;;;;;;;17.10;99.90;;;;;;4996622;28;1910;-50
2021/12/09 11:49:09;;;;;;;;;;;17.10;99.90;;;;;;4976823;28;1112;-51
2021/12/09 11:51:36;;;;;;;;;;;17.10;99.90;;;;;;4975783;28;1283;-51
2021/12/09 11:54:05;;;;;;;;;;;17.20;99.90;;;;;;4996984;28;864;-51
2021/12/09 11:56:45;;;;;;;;;;;17.20;99.90;;;;;;4995826;28;1220;-51
2021/12/09 12:11:07;;;;;;;;;;;17.30;99.90;;;;;;4994564;28;1914;-51
2021/12/09 12:16:42;;;;;;;;;;;17.40;99.90;;;;;;5000329;28;1068;-54
2021/12/09 12:19:24;;;;;;;;;;;17.40;99.90;;;;;;5000089;28;793;-54
2021/12/09 12:22:19;;;;;;;;;;;17.40;99.90;;;;;;5012754;28;885;-54
2021/12/09 12:27:52;;;;;;;;;;;17.40;99.90;;;;;;4999992;28;1883;-54
2021/12/09 12:30:48;;;;;;;;;;;17.40;99.90;;;;;;4999816;28;1060;-54
2021/12/09 12:36:25;;;;;;;;;;;17.40;99.90;;;;;;4999981;28;1096;-51
2021/12/09 12:39:12;;;;;;;;;;;17.40;99.90;;;;;;4999968;28;900;-51
2021/12/09 12:42:02;;;;;;;;;;;17.40;99.90;;;;;;5000104;28;841;-51
2021/12/09 12:44:31;;;;;;;;;;;17.30;99.90;;;;;;4992885;28;959;-51
2021/12/09 12:47:25;;;;;;;;;;;17.30;99.90;;;;;;4999367;28;1910;-51
2021/12/09 12:50:08;;;;;;;;;;;17.30;99.90;;;;;;5000038;28;1294;-51
2021/12/09 12:52:37;;;;;;;;;;;17.40;99.90;;;;;;5001537;28;1443;-51
2021/12/09 12:55:36;;;;;;;;;;;17.40;99.90;;;;;;4989944;28;1105;-51
2021/12/09 12:58:07;;;;;;;;;;;17.30;99.90;;;;;;4997299;28;1015;-50
2021/12/09 13:00:42;;;;;;;;;;;17.40;99.90;;;;;;4995117;28;1289;-50
2021/12/09 13:03:30;;;;;;;;;;;17.40;99.90;;;;;;4976712;28;1515;-50
2021/12/09 13:06:08;;;;;;;;;;;17.40;99.90;;;;;;4997326;28;1156;-50
2021/12/09 13:09:16;;;;;;;;;;;17.40;99.90;;;;;;4997454;28;1906;-50
2021/12/09 13:11:47;;;;;;;;;;;17.30;99.90;;;;;;4996945;28;1083;-50
2021/12/09 13:14:22;;;;;;;;;;;17.30;99.90;;;;;;4955625;28;1405;-50
2021/12/09 13:17:14;;;;;;;;;;;17.30;99.90;;;;;;4995314;28;1113;-50
2021/12/09 13:20:05;;;;;;;;;;;17.20;99.90;;;;;;5005385;28;1055;-50
2021/12/09 13:22:39;;;;;;;;;;;17.20;99.90;;;;;;4995504;28;1210;-49
2021/12/09 13:25:29;;;;;;;;;;;17.20;99.90;;;;;;4995030;28;1211;-50
2021/12/09 13:28:03;;;;;;;;;;;17.10;99.90;;;;;;4980566;28;1914;-53
2021/12/09 13:54:29;;;;;;;;;;;17.10;99.90;;;;;;4978958;28;1245;-50
2021/12/09 13:57:14;;;;;;;;;;;17.20;99.90;;;;;;4978722;28;1027;-49
2021/12/09 13:59:41;;;;;;;;;;;17.20;99.90;;;;;;4984602;28;1238;-50
2021/12/09 14:02:26;;;;;;;;;;;17.20;99.90;;;;;;4995560;28;1165;-50
2021/12/09 14:04:55;;;;;;;;;;;17.20;99.90;;;;;;4998682;28;967;-50
2021/12/09 14:07:28;;;;;;;;;;;17.20;99.90;;;;;;4998252;28;1910;-50
2021/12/09 14:10:22;;;;;;;;;;;17.10;99.90;;;;;;5010701;28;1043;-49
2021/12/09 14:12:57;;;;;;;;;;;17.10;99.90;;;;;;4981288;28;1028;-50
2021/12/09 14:15:35;;;;;;;;;;;17.10;99.90;;;;;;4998591;28;1120;-50
2021/12/09 14:18:07;;;;;;;;;;;17.10;99.90;;;;;;4960589;28;1612;-50
2021/12/09 14:20:33;;;;;;;;;;;17.20;99.90;;;;;;4979381;28;1186;-50
2021/12/09 14:22:59;;;;;;;;;;;17.30;99.90;;;;;;4960394;28;982;-50
2021/12/09 14:25:27;;;;;;;;;;;17.70;99.90;;;;;;4989302;28;1037;-51
2021/12/09 14:27:55;;;;;;;;;;;18.00;99.90;;;;;;4975625;28;1979;-51
2021/12/09 14:30:25;;;;;;;;;;;18.30;99.90;;;;;;4987796;28;1143;-50
2021/12/09 14:32:53;;;;;;;;;;;18.30;99.90;;;;;;4990811;28;980;-50
2021/12/09 14:35:26;;;;;;;;;;;18.00;99.90;;;;;;4993821;28;1019;-50
2021/12/09 14:38:15;;;;;;;;;;;17.80;99.90;;;;;;4990045;28;1086;-50
2021/12/09 14:40:45;;;;;;;;;;;17.60;99.90;;;;;;4989712;28;999;-50
2021/12/09 14:43:13;;;;;;;;;;;17.50;99.90;;;;;;4985945;28;1626;-50
2021/12/09 14:46:00;;;;;;;;;;;17.40;99.90;;;;;;5003894;28;962;-50
2021/12/09 14:48:45;;;;;;;;;;;17.30;99.90;;;;;;4997675;28;1910;-50
2021/12/09 14:51:18;;;;;;;;;;;17.20;99.90;;;;;;4997348;28;998;-50
2021/12/09 14:53:46;;;;;;;;;;;17.20;99.90;;;;;;4997575;28;995;-50
2021/12/09 14:56:21;;;;;;;;;;;17.10;99.90;;;;;;4990869;28;998;-50
2021/12/09 14:58:48;;;;;;;;;;;17.10;99.90;;;;;;4995909;28;1007;-50
2021/12/09 15:01:19;;;;;;;;;;;17.10;99.90;;;;;;4977910;28;1092;-50
2021/12/09 15:03:56;;;;;;;;;;;17.10;99.90;;;;;;4996169;28;984;-50
2021/12/09 15:06:27;;;;;;;;;;;17.00;99.90;;;;;;5010093;28;1240;-50
2021/12/09 15:09:00;;;;;;;;;;;17.00;99.90;;;;;;4979343;28;1906;-50
2021/12/09 15:11:26;;;;;;;;;;;17.00;99.90;;;;;;5005246;28;979;-50
2021/12/09 15:13:58;;;;;;;;;;;17.00;99.90;;;;;;5002255;28;986;-50
2021/12/09 15:16:26;;;;;;;;;;;17.00;99.90;;;;;;4996918;28;1347;-50
2021/12/09 15:18:53;;;;;;;;;;;17.00;99.90;;;;;;4996984;28;964;-51
2021/12/09 15:21:30;;;;;;;;;;;17.00;99.90;;;;;;5012328;28;1069;-51
2021/12/09 15:24:11;;;;;;;;;;;17.00;99.90;;;;;;5011284;28;1022;-52
2021/12/09 15:26:41;;;;;;;;;;;17.00;99.90;;;;;;4995936;28;1148;-53
2021/12/09 15:29:08;;;;;;;;;;;17.00;99.90;;;;;;4996816;28;995;-53
2021/12/09 15:31:38;;;;;;;;;;;17.00;99.90;;;;;;4996884;28;976;-53
2021/12/09 15:34:08;;;;;;;;;;;17.00;99.90;;;;;;4997193;28;812;-52
2021/12/09 15:36:36;;;;;;;;;;;17.00;99.90;;;;;;5010555;28;927;-51
2021/12/09 15:39:22;;;;;;;;;;;17.10;99.90;;;;;;4992522;28;877;-52
2021/12/09 15:41:58;;;;;;;;;;;17.10;99.90;;;;;;4992968;28;1612;-52
2021/12/09 15:44:24;;;;;;;;;;;17.10;99.90;;;;;;5014227;28;845;-52
2021/12/09 15:46:51;;;;;;;;;;;17.00;99.90;;;;;;5034262;28;1906;-50